createdAt,value
2018-07-27T00:00:39.858Z,100891.86
2018-07-27T00:03:08.698Z,100899.38
2018-07-27T00:05:37.604Z,100892.62
2018-07-27T00:08:06.480Z,100885.66
2018-07-27T00:10:35.389Z,100898.14
2018-07-27T00:13:04.298Z,100894.36
2018-07-27T00:15:33.301Z,100888.67
2018-07-27T00:18:02.152Z,100885.93
2018-07-27T00:20:31.001Z,100885.08
2018-07-27T00:22:59.858Z,100890.62
2018-07-27T00:25:28.839Z,100884.19
2018-07-27T00:27:57.746Z,100883.90
2018-07-27T00:30:26.578Z,100888.12
2018-07-27T00:32:55.428Z,100883.84
2018-07-27T00:35:24.294Z,100883.72
2018-07-27T00:37:53.172Z,100881.22
2018-07-27T00:40:22.027Z,100879.70
2018-07-27T00:42:52.466Z,100879.59
2018-07-27T00:45:21.355Z,100878.75
2018-07-27T00:47:50.213Z,100880.87
2018-07-27T00:50:19.089Z,100882.30
2018-07-27T00:52:47.992Z,100884.93
2018-07-27T00:55:16.907Z,100879.05
2018-07-27T00:57:45.784Z,100880.16
2018-07-27T01:00:14.757Z,100873.37
2018-07-27T01:02:43.623Z,100886.19
2018-07-27T01:05:12.501Z,100879.44
2018-07-27T01:07:41.331Z,100884.43
2018-07-27T01:10:10.208Z,100881.34
2018-07-27T01:12:39.015Z,100881.00
2018-07-27T01:15:07.951Z,100886.74
2018-07-27T01:17:36.783Z,100874.36
2018-07-27T01:20:06.713Z,100875.69
2018-07-27T01:22:35.587Z,100877.89
2018-07-27T01:25:04.540Z,100881.45
2018-07-27T01:27:33.449Z,100871.61
2018-07-27T01:30:02.284Z,100879.21
2018-07-27T01:32:31.147Z,100870.84
2018-07-27T01:35:00.063Z,100871.02
2018-07-27T01:37:29.040Z,100870.11
2018-07-27T01:39:57.824Z,100873.52
2018-07-27T01:42:26.734Z,100869.30
2018-07-27T01:44:55.609Z,100872.01
2018-07-27T01:47:33.200Z,100868.63
2018-07-27T01:50:02.109Z,100871.97
2018-07-27T01:52:31.044Z,100870.70
2018-07-27T01:54:59.911Z,100873.66
2018-07-27T01:57:28.835Z,100874.91
2018-07-27T01:59:57.745Z,100876.86
2018-07-27T02:02:26.671Z,100870.39
2018-07-27T02:04:55.611Z,100875.97
2018-07-27T02:07:24.462Z,100875.08
2018-07-27T02:09:53.855Z,100873.12
2018-07-27T02:12:22.743Z,100869.41
2018-07-27T02:14:51.665Z,100863.45
2018-07-27T02:17:20.468Z,100862.65
2018-07-27T02:19:49.376Z,100854.55
2018-07-27T02:22:18.310Z,100854.59
2018-07-27T02:24:47.178Z,100857.12
2018-07-27T02:27:16.085Z,100857.03
2018-07-27T02:29:44.963Z,100853.90
2018-07-27T02:32:13.952Z,100850.07
2018-07-27T02:34:42.815Z,100848.11
2018-07-27T02:37:11.679Z,100851.16
2018-07-27T02:39:40.574Z,100855.30
2018-07-27T02:42:09.414Z,100851.27
2018-07-27T02:44:38.332Z,100850.97
2018-07-27T02:47:07.270Z,100842.70
2018-07-27T02:49:36.126Z,100850.77
2018-07-27T02:52:05.025Z,100854.26
2018-07-27T02:54:37.546Z,100855.05
2018-07-27T02:57:06.423Z,100852.45
2018-07-27T02:59:35.296Z,100850.47
2018-07-27T03:02:04.214Z,100848.18
2018-07-27T03:04:33.177Z,100851.41
2018-07-27T03:07:01.953Z,100847.66
2018-07-27T03:09:30.969Z,100848.61
2018-07-27T03:11:59.773Z,100849.83
2018-07-27T03:14:28.645Z,100848.21
2018-07-27T03:16:57.492Z,100848.14
2018-07-27T03:19:27.023Z,100854.70
2018-07-27T03:21:56.084Z,100856.02
2018-07-27T03:24:25.038Z,100857.02
2018-07-27T03:26:53.904Z,100856.81
2018-07-27T03:29:22.782Z,100855.13
2018-07-27T03:31:51.688Z,100853.14
2018-07-27T03:34:20.632Z,100853.98
2018-07-27T03:36:49.468Z,100840.41
2018-07-27T03:39:21.430Z,100849.25
2018-07-27T03:41:50.308Z,100849.98
2018-07-27T03:44:19.201Z,100842.66
2018-07-27T03:46:48.071Z,100848.71
2018-07-27T03:49:17.184Z,100852.05
2018-07-27T03:51:46.089Z,100847.70
2018-07-27T03:54:14.973Z,100849.39
2018-07-27T03:56:43.902Z,100847.34
2018-07-27T03:59:12.772Z,100851.38
2018-07-27T04:01:42.533Z,100848.59
2018-07-27T04:04:11.406Z,100858.14
2018-07-27T04:06:40.265Z,100853.20
2018-07-27T04:09:09.771Z,100851.80
2018-07-27T04:11:39.183Z,100854.27
2018-07-27T04:14:08.326Z,100862.08
2018-07-27T04:16:37.428Z,100856.16
2018-07-27T04:19:06.382Z,100860.33
2018-07-27T04:21:35.330Z,100858.69
2018-07-27T04:24:04.192Z,100861.48
2018-07-27T04:26:33.085Z,100863.16
2018-07-27T04:29:01.932Z,100858.88
2018-07-27T04:31:30.810Z,100863.90
2018-07-27T04:33:59.732Z,100862.51
2018-07-27T04:36:28.606Z,100866.35
2018-07-27T04:38:57.460Z,100865.89
2018-07-27T04:41:26.387Z,100867.28
2018-07-27T04:43:55.474Z,100868.38
2018-07-27T04:46:24.370Z,100871.55
2018-07-27T04:48:53.267Z,100870.61
2018-07-27T04:51:22.207Z,100873.14
2018-07-27T04:53:51.034Z,100872.93
2018-07-27T04:56:19.902Z,100877.83
2018-07-27T04:58:48.783Z,100874.55
2018-07-27T05:01:17.648Z,100879.30
2018-07-27T05:03:46.501Z,100877.72
2018-07-27T05:06:15.367Z,100878.59
2018-07-27T05:09:02.013Z,100876.41
2018-07-27T05:11:30.809Z,100877.45
2018-07-27T05:13:59.682Z,100875.27
2018-07-27T05:16:28.588Z,100875.59
2018-07-27T05:18:57.447Z,100878.78
2018-07-27T05:21:26.387Z,100879.62
2018-07-27T05:23:55.287Z,100875.53
2018-07-27T05:26:25.311Z,100880.98
2018-07-27T05:28:54.226Z,100885.27
2018-07-27T05:31:23.148Z,100884.30
2018-07-27T05:33:52.015Z,100883.50
2018-07-27T05:36:20.923Z,100883.82
2018-07-27T05:38:49.711Z,100885.91
2018-07-27T05:41:18.666Z,100886.56
2018-07-27T05:43:47.501Z,100893.03
2018-07-27T05:46:16.362Z,100887.45
2018-07-27T05:48:45.298Z,100888.60
2018-07-27T05:51:14.029Z,100890.24
2018-07-27T05:53:42.933Z,100884.49
2018-07-27T05:56:11.896Z,100892.42
2018-07-27T05:58:40.739Z,100881.73
2018-07-27T06:01:09.617Z,100879.69
2018-07-27T06:03:38.500Z,100882.26
2018-07-27T06:06:07.851Z,100879.48
2018-07-27T06:08:36.778Z,100877.77
2018-07-27T06:11:05.745Z,100881.89
2018-07-27T06:13:34.592Z,100876.36
2018-07-27T06:16:03.437Z,100875.05
2018-07-27T06:18:32.487Z,100874.37
2018-07-27T06:21:01.405Z,100873.95
2018-07-27T06:23:30.275Z,100878.89
2018-07-27T06:25:59.163Z,100872.19
2018-07-27T06:28:28.044Z,100872.44
2018-07-27T06:30:58.176Z,100868.48
2018-07-27T06:33:27.036Z,100874.69
2018-07-27T06:35:55.936Z,100873.41
2018-07-27T06:38:24.810Z,100873.56
2018-07-27T06:40:53.703Z,100878.88
2018-07-27T06:43:22.569Z,100881.20
2018-07-27T06:45:51.494Z,100875.28
2018-07-27T06:48:21.037Z,100886.14
2018-07-27T06:50:51.475Z,100881.31
2018-07-27T06:53:20.465Z,100882.77
2018-07-27T06:55:49.382Z,100887.25
2018-07-27T06:58:18.292Z,100885.41
2018-07-27T07:00:47.158Z,100880.52
2018-07-27T07:03:16.002Z,100879.89
2018-07-27T07:05:44.901Z,100883.51
2018-07-27T07:08:13.820Z,100886.74
2018-07-27T07:10:42.656Z,100887.24
2018-07-27T07:13:11.545Z,100883.22
2018-07-27T07:15:40.433Z,100877.72
2018-07-27T07:18:09.551Z,100879.45
2018-07-27T07:20:38.453Z,100877.66
2018-07-27T07:23:07.359Z,100876.29
2018-07-27T07:25:36.418Z,100874.20
2018-07-27T07:28:05.102Z,100874.88
2018-07-27T07:30:34.000Z,100875.62
2018-07-27T07:33:02.937Z,100869.55
2018-07-27T07:35:31.879Z,100870.19
2018-07-27T07:38:00.741Z,100874.39
2018-07-27T07:40:29.601Z,100873.86
2018-07-27T07:42:58.516Z,100874.22
2018-07-27T07:45:27.387Z,100873.97
2018-07-27T07:47:56.248Z,100879.89
2018-07-27T07:50:25.164Z,100878.69
2018-07-27T07:52:54.054Z,100875.62
2018-07-27T07:55:22.997Z,100876.45
2018-07-27T07:58:27.414Z,100875.35
2018-07-27T08:00:57.016Z,100869.69
2018-07-27T08:03:26.068Z,100865.72
2018-07-27T08:05:55.103Z,100856.60
2018-07-27T08:08:23.898Z,100857.64
2018-07-27T08:10:52.814Z,100859.15
2018-07-27T08:13:21.684Z,100860.34
2018-07-27T08:15:50.529Z,100861.17
2018-07-27T08:18:19.381Z,100856.38
2018-07-27T08:20:48.236Z,100858.45
2018-07-27T08:23:17.168Z,100857.95
2018-07-27T08:26:30.783Z,100851.01
2018-07-27T08:28:59.679Z,100844.05
2018-07-27T08:31:28.536Z,100842.22
2018-07-27T08:33:57.617Z,100848.88
2018-07-27T08:36:26.536Z,100845.16
2018-07-27T08:38:55.468Z,100842.12
2018-07-27T08:41:27.226Z,100835.05
2018-07-27T08:43:56.105Z,100836.20
2018-07-27T08:46:25.033Z,100828.66
2018-07-27T08:48:53.875Z,100835.27
2018-07-27T08:51:22.791Z,100834.44
2018-07-27T08:53:56.997Z,100831.86
2018-07-27T08:56:34.110Z,100828.55
2018-07-27T08:59:06.695Z,100823.81
2018-07-27T09:01:45.757Z,100821.70
2018-07-27T09:04:23.838Z,100827.00
2018-07-27T09:06:55.711Z,100823.39
2018-07-27T09:09:30.541Z,100821.35
2018-07-27T09:11:59.664Z,100815.56
2018-07-27T09:14:29.119Z,100821.58
2018-07-27T09:17:01.363Z,100816.52
2018-07-27T09:19:31.441Z,100816.62
2018-07-27T09:22:01.014Z,100821.54
2018-07-27T09:24:33.543Z,100820.14
2018-07-27T09:27:05.334Z,100819.59
2018-07-27T09:29:35.052Z,100814.56
2018-07-27T09:32:06.048Z,100810.98
2018-07-27T09:34:37.962Z,100812.45
2018-07-27T09:37:15.113Z,100813.81
2018-07-27T09:39:45.241Z,100807.41
2018-07-27T09:42:17.332Z,100803.62
2018-07-27T09:44:46.273Z,100804.03
2018-07-27T09:47:15.779Z,100806.58
2018-07-27T09:49:50.697Z,100805.02
2018-07-27T09:52:19.719Z,100813.75
2018-07-27T09:54:53.219Z,100789.97
2018-07-27T09:57:23.262Z,100794.52
2018-07-27T09:59:52.647Z,100803.63
2018-07-27T10:02:22.199Z,100799.75
2018-07-27T10:04:51.373Z,100800.20
2018-07-27T10:07:20.867Z,100793.52
2018-07-27T10:09:52.385Z,100791.66
2018-07-27T10:12:24.759Z,100792.84
2018-07-27T10:14:53.862Z,100793.88
2018-07-27T10:17:23.099Z,100785.67
2018-07-27T10:19:54.626Z,100781.38
2018-07-27T10:22:33.961Z,100770.90
2018-07-27T10:25:15.320Z,100786.18
2018-07-27T10:27:41.420Z,100774.36
2018-07-27T10:30:11.063Z,100770.74
2018-07-27T10:32:40.377Z,100766.95
2018-07-27T10:35:12.338Z,100767.64
2018-07-27T10:37:48.100Z,100767.78
2018-07-27T10:40:18.837Z,100760.77
2018-07-27T10:42:54.093Z,100765.58
2018-07-27T10:45:28.567Z,100739.70
2018-07-27T10:47:57.992Z,100760.16
2018-07-27T10:50:27.142Z,100766.68
2018-07-27T10:52:59.294Z,100751.41
2018-07-27T10:55:28.574Z,100749.56
2018-07-27T10:58:00.501Z,100761.33
2018-07-27T11:00:29.684Z,100748.21
2018-07-27T11:03:07.182Z,100750.97
2018-07-27T11:05:39.288Z,100747.80
2018-07-27T11:08:13.382Z,100738.14
2018-07-27T11:10:42.946Z,100736.72
2018-07-27T11:13:17.575Z,100730.39
2018-07-27T11:15:50.339Z,100728.59
2018-07-27T11:18:16.717Z,100722.04
2018-07-27T11:20:49.418Z,100728.21
2018-07-27T11:23:19.610Z,100723.50
2018-07-27T11:25:52.156Z,100717.13
2018-07-27T11:28:25.740Z,100715.06
2018-07-27T11:30:57.699Z,100709.09
2018-07-27T11:33:30.950Z,100712.87
2018-07-27T11:36:00.125Z,100704.17
2018-07-27T11:38:29.980Z,100700.83
2018-07-27T11:40:59.115Z,100704.66
2018-07-27T11:43:29.398Z,100702.78
2018-07-27T11:46:07.366Z,100698.66
2018-07-27T11:48:49.904Z,100691.47
2018-07-27T11:51:23.315Z,100692.05
2018-07-27T11:53:55.016Z,100693.02
2018-07-27T11:56:24.098Z,100686.41
2018-07-27T11:58:55.622Z,100683.34
2018-07-27T12:01:25.028Z,100672.21
2018-07-27T12:04:00.517Z,100679.09
2018-07-27T12:06:30.666Z,100679.84
2018-07-27T12:09:11.532Z,100671.09
2018-07-27T12:11:40.983Z,100658.77
2018-07-27T12:14:14.395Z,100657.33
2018-07-27T12:16:45.939Z,100664.58
2018-07-27T12:19:20.032Z,100664.06
2018-07-27T12:21:47.102Z,100656.60
2018-07-27T12:24:16.460Z,100651.25
2018-07-27T12:26:53.343Z,100650.64
2018-07-27T12:29:22.521Z,100649.12
2018-07-27T12:31:58.606Z,100642.47
2018-07-27T12:34:30.116Z,100637.46
2018-07-27T12:37:01.911Z,100633.42
2018-07-27T12:39:31.190Z,100629.28
2018-07-27T12:42:00.300Z,100625.51
2018-07-27T12:44:33.320Z,100643.54
2018-07-27T12:47:06.611Z,100632.63
2018-07-27T12:49:37.027Z,100632.08
2018-07-27T12:52:06.508Z,100623.98
2018-07-27T12:54:38.579Z,100618.98
2018-07-27T12:57:16.004Z,100614.45
2018-07-27T12:59:42.332Z,100619.05
2018-07-27T13:02:14.380Z,100608.67
2018-07-27T13:04:43.895Z,100611.11
2018-07-27T13:07:14.470Z,100597.29
2018-07-27T13:09:46.091Z,100589.13
2018-07-27T13:12:16.235Z,100607.38
2018-07-27T13:14:48.032Z,100602.04
2018-07-27T13:17:17.113Z,100602.13
2018-07-27T13:19:48.734Z,100588.02
2018-07-27T13:22:17.910Z,100590.31
2018-07-27T13:25:02.192Z,100594.33
2018-07-27T13:27:16.293Z,100587.66
2018-07-27T13:29:48.908Z,100588.46
2018-07-27T13:32:16.658Z,100586.27
2018-07-27T13:34:55.520Z,100576.58
2018-07-27T13:37:28.691Z,100572.32
2018-07-27T13:40:02.238Z,100576.78
2018-07-27T13:42:32.501Z,100577.20
2018-07-27T13:45:03.094Z,100570.77
2018-07-27T13:47:32.574Z,100571.65
2018-07-27T13:50:04.962Z,100564.58
2018-07-27T13:52:37.332Z,100563.88
2018-07-27T13:55:07.140Z,100566.78
2018-07-27T13:57:39.343Z,100546.69
2018-07-27T14:00:07.695Z,100551.63
2018-07-27T14:02:36.940Z,100543.96
2018-07-27T14:05:11.629Z,100552.34
2018-07-27T14:07:40.366Z,100546.61
2018-07-27T14:10:12.533Z,100536.95
2018-07-27T14:12:44.413Z,100539.80
2018-07-27T14:15:13.314Z,100537.29
2018-07-27T14:17:44.550Z,100530.70
2018-07-27T14:20:13.819Z,100538.19
2018-07-27T14:22:50.368Z,100534.63
2018-07-27T14:25:19.735Z,100527.33
2018-07-27T14:27:49.219Z,100529.44
2018-07-27T14:30:20.540Z,100524.44
2018-07-27T14:32:50.235Z,100512.44
2018-07-27T14:35:22.290Z,100507.82
2018-07-27T14:37:51.645Z,100516.99
2018-07-27T14:40:23.848Z,100517.94
2018-07-27T14:42:59.399Z,100504.28
2018-07-27T14:45:29.788Z,100498.05
2018-07-27T14:48:02.692Z,100500.61
2018-07-27T14:50:33.511Z,100493.77
2018-07-27T14:53:03.597Z,100493.88
2018-07-27T14:55:36.021Z,100487.30
2018-07-27T14:58:06.803Z,100492.21
2018-07-27T15:00:36.202Z,100484.87
2018-07-27T15:03:06.385Z,100487.78
2018-07-27T15:05:36.505Z,100486.20
2018-07-27T15:08:06.401Z,100480.63
2018-07-27T15:10:37.247Z,100482.38
2018-07-27T15:13:06.673Z,100477.00
2018-07-27T15:15:39.029Z,100476.27
2018-07-27T15:18:13.553Z,100472.66
2018-07-27T15:20:41.025Z,100461.84
2018-07-27T15:23:10.488Z,100469.31
2018-07-27T15:25:40.362Z,100467.59
2018-07-27T15:28:11.927Z,100467.09
2018-07-27T15:30:42.707Z,100465.77
2018-07-27T15:33:12.691Z,100466.50
2018-07-27T15:35:44.948Z,100463.41
2018-07-27T15:38:12.450Z,100454.27
2018-07-27T15:40:47.444Z,100451.83
2018-07-27T15:43:19.216Z,100451.69
2018-07-27T15:45:48.982Z,100447.94
2018-07-27T15:48:20.774Z,100450.16
2018-07-27T15:50:50.062Z,100444.36
2018-07-27T15:53:19.106Z,100445.91
2018-07-27T15:55:50.947Z,100449.94
2018-07-27T15:58:23.582Z,100450.59
2018-07-27T16:00:56.026Z,100443.93
2018-07-27T16:03:25.143Z,100442.70
2018-07-27T16:06:02.005Z,100424.78
2018-07-27T16:08:31.285Z,100423.27
2018-07-27T16:11:00.816Z,100427.72
2018-07-27T16:13:30.079Z,100424.83
2018-07-27T16:15:59.222Z,100421.42
2018-07-27T16:18:28.287Z,100418.84
2018-07-27T16:21:10.902Z,100415.91
2018-07-27T16:23:45.873Z,100417.39
2018-07-27T16:26:15.514Z,100407.97
2018-07-27T16:28:48.356Z,100408.37
2018-07-27T16:31:17.988Z,100411.19
2018-07-27T16:33:52.705Z,100406.87
2018-07-27T16:36:21.894Z,100408.11
2018-07-27T16:38:51.105Z,100407.85
2018-07-27T16:41:20.387Z,100399.63
2018-07-27T16:43:49.567Z,100403.10
2018-07-27T16:46:22.420Z,100400.78
2018-07-27T16:48:53.402Z,100397.05
2018-07-27T16:51:22.679Z,100400.85
2018-07-27T16:53:52.139Z,100397.30
2018-07-27T16:56:24.342Z,100395.71
2018-07-27T16:59:05.384Z,100398.65
2018-07-27T17:01:33.466Z,100396.22
2018-07-27T17:04:03.399Z,100388.23
2018-07-27T17:06:36.428Z,100395.81
2018-07-27T17:09:08.883Z,100393.72
2018-07-27T17:11:38.017Z,100386.74
2018-07-27T17:14:07.435Z,100382.06
2018-07-27T17:16:39.397Z,100381.77
2018-07-27T17:19:09.521Z,100378.81
2018-07-27T17:21:40.559Z,100377.86
2018-07-27T17:24:11.266Z,100377.16
2018-07-27T17:26:45.165Z,100373.89
2018-07-27T17:29:16.947Z,100368.08
2018-07-27T17:31:46.139Z,100362.33
2018-07-27T17:34:18.160Z,100365.41
2018-07-27T17:36:47.919Z,100356.31
2018-07-27T17:39:17.345Z,100357.28
2018-07-27T17:41:49.234Z,100350.17
2018-07-27T17:44:18.413Z,100352.04
2018-07-27T17:46:48.102Z,100346.63
2018-07-27T17:49:17.701Z,100348.93
2018-07-27T17:51:50.142Z,100346.60
2018-07-27T17:54:19.534Z,100343.38
2018-07-27T17:56:51.956Z,100340.02
2018-07-27T17:59:21.307Z,100337.01
2018-07-27T18:01:50.708Z,100331.33
2018-07-27T18:04:28.003Z,100334.63
2018-07-27T18:06:58.362Z,100332.77
2018-07-27T18:09:27.739Z,100325.22
2018-07-27T18:11:57.307Z,100323.37
2018-07-27T18:14:26.577Z,100329.02
2018-07-27T18:16:55.741Z,100322.14
2018-07-27T18:19:26.887Z,100326.08
2018-07-27T18:21:59.169Z,100328.89
2018-07-27T18:24:28.734Z,100322.39
2018-07-27T18:26:58.549Z,100318.19
2018-07-27T18:29:27.945Z,100319.70
2018-07-27T18:31:57.890Z,100318.12
2018-07-27T18:34:27.074Z,100319.92
2018-07-27T18:37:02.769Z,100321.72
2018-07-27T18:39:32.201Z,100318.66
2018-07-27T18:42:01.716Z,100310.92
2018-07-27T18:44:30.816Z,100307.96
2018-07-27T18:47:07.869Z,100307.38
2018-07-27T18:49:34.740Z,100308.95
2018-07-27T18:52:04.195Z,100307.05
2018-07-27T18:54:33.460Z,100309.89
2018-07-27T18:57:03.375Z,100314.70
2018-07-27T18:59:32.986Z,100318.25
2018-07-27T19:02:08.777Z,100312.23
2018-07-27T19:04:40.846Z,100319.81
2018-07-27T19:07:10.776Z,100318.23
2018-07-27T19:09:40.678Z,100323.88
2018-07-27T19:12:10.150Z,100320.39
2018-07-27T19:14:39.607Z,100323.13
2018-07-27T19:17:15.553Z,100324.82
2018-07-27T19:19:45.319Z,100318.44
2018-07-27T19:22:17.629Z,100314.03
2018-07-27T19:24:47.230Z,100319.80
2018-07-27T19:27:19.967Z,100317.23
2018-07-27T19:29:49.506Z,100313.09
2018-07-27T19:32:19.262Z,100326.72
2018-07-27T19:34:48.543Z,100325.20
2018-07-27T19:37:17.617Z,100324.86
2018-07-27T19:39:47.361Z,100319.58
2018-07-27T19:42:21.112Z,100319.75
2018-07-27T19:44:51.607Z,100322.39
2018-07-27T19:47:18.020Z,100321.28
2018-07-27T19:49:47.560Z,100328.50
2018-07-27T19:52:17.136Z,100331.50
2018-07-27T19:54:46.983Z,100323.50
2018-07-27T19:57:17.262Z,100322.77
2018-07-27T19:59:51.537Z,100323.26
2018-07-27T20:02:23.787Z,100329.54
2018-07-27T20:04:53.178Z,100332.15
2018-07-27T20:07:27.666Z,100335.00
2018-07-27T20:09:54.848Z,100330.89
2018-07-27T20:12:23.640Z,100322.60
2018-07-27T20:14:52.495Z,100327.05
2018-07-27T20:17:21.332Z,100325.43
2018-07-27T20:19:50.212Z,100326.33
2018-07-27T20:22:19.098Z,100331.16
2018-07-27T20:24:47.959Z,100334.00
2018-07-27T20:27:16.907Z,100336.95
2018-07-27T20:29:45.969Z,100323.70
2018-07-27T20:32:14.850Z,100320.98
2018-07-27T20:34:43.697Z,100325.22
2018-07-27T20:37:12.606Z,100321.08
2018-07-27T20:39:41.441Z,100323.89
2018-07-27T20:42:10.335Z,100327.33
2018-07-27T20:44:39.211Z,100321.23
2018-07-27T20:47:08.095Z,100322.42
2018-07-27T20:49:39.874Z,100326.92
2018-07-27T20:52:08.752Z,100327.32
2018-07-27T20:54:37.675Z,100330.70
2018-07-27T20:57:06.568Z,100332.14
2018-07-27T20:59:35.369Z,100328.55
2018-07-27T21:02:04.371Z,100326.36
2018-07-27T21:04:33.323Z,100325.25
2018-07-27T21:07:02.097Z,100324.19
2018-07-27T21:09:30.947Z,100319.19
2018-07-27T21:12:06.682Z,100314.83
2018-07-27T21:14:35.508Z,100320.83
2018-07-27T21:17:04.835Z,100318.36
2018-07-27T21:19:33.680Z,100316.72
2018-07-27T21:22:02.624Z,100316.45
2018-07-27T21:24:31.398Z,100307.58
2018-07-27T21:27:00.253Z,100306.22
2018-07-27T21:29:29.090Z,100308.63
2018-07-27T21:31:57.912Z,100310.97
2018-07-27T21:35:21.767Z,100307.08
2018-07-27T21:37:50.561Z,100307.09
2018-07-27T21:40:19.470Z,100299.00
2018-07-27T21:42:48.326Z,100299.02
2018-07-27T21:45:17.240Z,100297.07
2018-07-27T21:47:46.113Z,100298.75
2018-07-27T21:50:14.980Z,100298.98
2018-07-27T21:52:43.800Z,100295.36
2018-07-27T21:55:12.665Z,100290.62
2018-07-27T21:58:17.201Z,100287.80
2018-07-27T22:00:46.072Z,100282.77
2018-07-27T22:03:14.894Z,100274.69
2018-07-27T22:05:43.768Z,100277.48
2018-07-27T22:08:12.622Z,100272.98
2018-07-27T22:10:41.820Z,100274.64
2018-07-27T22:13:10.785Z,100270.97
2018-07-27T22:15:39.564Z,100262.30
2018-07-27T22:18:08.399Z,100253.94
2018-07-27T22:20:37.372Z,100253.06
2018-07-27T22:23:06.213Z,100246.65
2018-07-27T22:25:35.087Z,100240.22
2018-07-27T22:28:04.108Z,100244.97
2018-07-27T22:30:32.996Z,100243.84
2018-07-27T22:33:01.852Z,100239.95
2018-07-27T22:35:30.684Z,100234.61
2018-07-27T22:37:59.555Z,100230.78
2018-07-27T22:40:28.420Z,100227.37
2018-07-27T22:43:00.559Z,100223.23
2018-07-27T22:45:29.400Z,100219.56
2018-07-27T22:47:58.269Z,100210.61
2018-07-27T22:50:27.171Z,100202.20
2018-07-27T22:52:56.067Z,100206.96
2018-07-27T22:55:24.926Z,100204.73
2018-07-27T22:57:53.768Z,100198.81
2018-07-27T23:00:22.580Z,100192.92
2018-07-27T23:02:51.444Z,100190.14
2018-07-27T23:06:02.615Z,100192.94
2018-07-27T23:08:31.448Z,100190.56
2018-07-27T23:11:00.291Z,100182.98
2018-07-27T23:13:29.108Z,100184.09
2018-07-27T23:15:57.994Z,100187.39
2018-07-27T23:18:27.239Z,100184.89
2018-07-27T23:20:56.086Z,100184.88
2018-07-27T23:23:24.948Z,100185.45
2018-07-27T23:25:53.789Z,100179.94
2018-07-27T23:28:22.676Z,100184.31
2018-07-27T23:30:51.556Z,100177.34
2018-07-27T23:33:20.436Z,100174.81
2018-07-27T23:35:49.281Z,100170.64
2018-07-27T23:38:18.137Z,100161.95
2018-07-27T23:40:46.998Z,100156.11
2018-07-27T23:43:15.872Z,100158.86
2018-07-27T23:45:44.704Z,100148.80
2018-07-27T23:48:13.547Z,100141.23
2018-07-27T23:50:42.490Z,100144.28
2018-07-27T23:53:11.369Z,100134.20
2018-07-27T23:55:40.208Z,100132.27
2018-07-27T23:58:09.023Z,100133.11
